Details From EGHI - Southampton
To EGBB - Birmingham
Flight Number -
Tags decoded
Created
Modified
Stats Distance 97 nm / 179 km
Max Altitude 0 ft / 0 m
Waypoints 7
Social Downloads 7
Likes 1
Share VATSIM

Download

Looking for another format? Having issues loading an existing format? Contact us
Advertisement - Login to hide

Notes

Requested: EGHI SAMO3 NORRY HON14 IBM06 IMB51 MAPLE IBM01 BIR01 EGBB Unmatched points: SAMO3 IBM06 IMB51

Route

EGHI NORRY HON14 MAPLE IBM01 BIR01 EGBB

ID Type Via Altitude Latitude Longitude Leg Dist Tot Dist Heading (true) Name
O EGHI APT - 0 ft / 0 m 50.95026˚ -1.35681˚ - 0 nm - Southampton
NORRY FIX - 0 ft / 0 m 51.47972˚ -1.12333˚ 32 nm 32 nm 15° / 16° -
HON14 FIX - 0 ft / 0 m 52.26996˚ -1.53645˚ 49 nm 82 nm 342° / 342° -
MAPLE FIX - 0 ft / 0 m 52.39333˚ -1.68083˚ 9 nm 91 nm 324° / 324° -
IBM01 FIX - 0 ft / 0 m 52.43491˚ -1.72678˚ 3 nm 94 nm 326° / 326° -
BIR01 FIX - 0 ft / 0 m 52.44025˚ -1.73281˚ 0 nm 95 nm 325° / 325° -
O EGBB APT - 0 ft / 0 m 52.45597˚ -1.75038˚ 1 nm 96 nm 326° / 326° Birmingham

Altitude Profile

Advertisement - Login to hide

EGHI

Details ICAO EGHI (SOU)
Name Southampton
Region United Kingdom
Timezone Europe/London (UTC+1.0)
Stats Elevation 44 ft / 13 m (AMSL)
Location 50.950255° -1.356806°
Runways 1
Magnetic Variation 0.748° W

METAR

EGHI 231720Z 03007KT 360V080 9999 SCT040 18/10 Q1021

Decode

TAF

Not found

Departure Runways

ID Width Length Bearing (true) Bearing (mag) Surface Threshold Offset Overrun Length
02 121 ft / 37 m 5,650 ft / 1,722 m 19.33° 20.08° Asphalt 240 ft / 73 m 0 ft / 0 m
20 121 ft / 37 m 5,650 ft / 1,722 m 199.34° 200.09° Asphalt 144 ft / 44 m 0 ft / 0 m

EGBB

Details ICAO EGBB (BHX)
Name Birmingham
Region United Kingdom
Timezone Europe/London (UTC+1.0)
Stats Elevation 327 ft / 100 m (AMSL)
Location 52.455966° -1.750378°
Runways 1
Magnetic Variation 1.073° W

METAR

EGBB 231720Z 04011KT 010V070 CAVOK 19/10 Q1024

Decode

TAF

TAF EGBB 231101Z 2312/2412 03009KT 9999 FEW040 PROB30 TEMPO 2322/2324 5000 SHRA BKN014 BECMG 2400/2403 BKN014 PROB30 TEMPO 2400/2412 4500 SHRA BKN009 BECMG 2407/2410 BKN018

Decode

Destination Runways

ID Width Length Bearing (true) Bearing (mag) Surface Threshold Offset Overrun Length
15 151 ft / 46 m 8,477 ft / 2,584 m 145.87° 146.94° Asphalt 925 ft / 282 m 0 ft / 0 m
33 151 ft / 46 m 8,477 ft / 2,584 m 325.89° 326.96° Asphalt 958 ft / 292 m 0 ft / 0 m

Approach Navaids

Runway Type Ident Frequency Range Bearing (true) Bearing (mag) Slope Elevation
15 Localiser IBIR 110.10 MHz 18 nm / 33 km 145.89° 146.97° - 325 ft / 99 m (AMSL)
15 Glidescope IBIR 110.10 MHz 10 nm / 19 km 145.88° 146.95° 3.00° 325 ft / 99 m (AMSL)
15 DME IBIR 110.10 MHz 18 nm / 33 km - - - 349 ft / 106 m (AMSL)
33 Localiser IBM 110.10 MHz 18 nm / 33 km 325.87° 326.94° - 325 ft / 99 m (AMSL)
33 Glidescope IBM 110.10 MHz 10 nm / 19 km 325.88° 326.95° 3.00° 325 ft / 99 m (AMSL)
33 DME IBM 110.10 MHz 18 nm / 33 km - - - 327 ft / 100 m (AMSL)

Popular Alternatives